sensor_id;sensor_type;location;lat;lon;timestamp;pressure;altitude;pressure_sealevel;temperature;humidity
75051;BME280;63628;47.656;11.310;2022-10-31T00:01:13;95281.97;;;14.85;69.03
75051;BME280;63628;47.656;11.310;2022-10-31T00:03:40;95266.28;;;14.88;68.77
75051;BME280;63628;47.656;11.310;2022-10-31T00:06:07;95277.31;;;14.75;69.31
75051;BME280;63628;47.656;11.310;2022-10-31T00:08:33;95281.34;;;14.78;68.02
75051;BME280;63628;47.656;11.310;2022-10-31T00:11:00;95271.88;;;14.87;68.79
75051;BME280;63628;47.656;11.310;2022-10-31T00:13:27;95270.56;;;14.89;68.56
75051;BME280;63628;47.656;11.310;2022-10-31T00:15:53;95272.00;;;13.18;61.33
75051;BME280;63628;47.656;11.310;2022-10-31T00:18:19;95278.03;;;11.85;75.24
75051;BME280;63628;47.656;11.310;2022-10-31T00:20:46;95262.00;;;13.99;70.89
75051;BME280;63628;47.656;11.310;2022-10-31T00:23:12;95267.13;;;14.50;69.26
75051;BME280;63628;47.656;11.310;2022-10-31T00:25:39;95262.81;;;14.66;69.00
75051;BME280;63628;47.656;11.310;2022-10-31T00:28:07;95258.91;;;14.74;68.63
75051;BME280;63628;47.656;11.310;2022-10-31T00:30:35;95258.63;;;13.86;59.80
75051;BME280;63628;47.656;11.310;2022-10-31T00:33:03;95265.31;;;14.06;70.53
75051;BME280;63628;47.656;11.310;2022-10-31T00:35:31;95261.28;;;14.53;69.15
75051;BME280;63628;47.656;11.310;2022-10-31T00:37:58;95267.06;;;14.67;68.82
75051;BME280;63628;47.656;11.310;2022-10-31T00:40:24;95261.28;;;13.41;62.29
75051;BME280;63628;47.656;11.310;2022-10-31T00:42:51;95266.13;;;13.89;71.16
75051;BME280;63628;47.656;11.310;2022-10-31T00:45:18;95266.31;;;13.26;59.04
75051;BME280;63628;47.656;11.310;2022-10-31T00:47:44;95270.63;;;13.04;73.36
75051;BME280;63628;47.656;11.310;2022-10-31T00:50:11;95270.41;;;14.24;69.69
75051;BME280;63628;47.656;11.310;2022-10-31T00:52:37;95271.00;;;14.43;68.93
75051;BME280;63628;47.656;11.310;2022-10-31T00:55:04;95269.34;;;14.42;69.25
75051;BME280;63628;47.656;11.310;2022-10-31T00:57:30;95258.06;;;14.35;69.22
75051;BME280;63628;47.656;11.310;2022-10-31T00:59:57;95270.03;;;14.49;69.14
75051;BME280;63628;47.656;11.310;2022-10-31T01:02:23;95268.22;;;14.54;68.81
75051;BME280;63628;47.656;11.310;2022-10-31T01:04:50;95268.72;;;14.51;68.59
75051;BME280;63628;47.656;11.310;2022-10-31T01:07:16;95275.63;;;14.19;60.74
75051;BME280;63628;47.656;11.310;2022-10-31T01:09:43;95273.72;;;13.24;70.70
75051;BME280;63628;47.656;11.310;2022-10-31T01:12:09;95278.63;;;14.22;69.67
75051;BME280;63628;47.656;11.310;2022-10-31T01:14:36;95265.16;;;14.29;68.90
75051;BME280;63628;47.656;11.310;2022-10-31T01:17:02;95267.75;;;14.41;68.77
75051;BME280;63628;47.656;11.310;2022-10-31T01:19:29;95264.69;;;14.32;69.02
75051;BME280;63628;47.656;11.310;2022-10-31T01:21:55;95263.81;;;14.43;68.33
75051;BME280;63628;47.656;11.310;2022-10-31T01:24:22;95271.28;;;14.13;68.74
75051;BME280;63628;47.656;11.310;2022-10-31T01:26:48;95277.66;;;14.28;69.19
75051;BME280;63628;47.656;11.310;2022-10-31T01:29:14;95279.03;;;13.98;63.23
75051;BME280;63628;47.656;11.310;2022-10-31T01:31:41;95280.50;;;14.39;68.48
75051;BME280;63628;47.656;11.310;2022-10-31T01:34:12;95272.44;;;14.34;69.22
75051;BME280;63628;47.656;11.310;2022-10-31T01:36:40;95275.38;;;13.01;72.49
75051;BME280;63628;47.656;11.310;2022-10-31T01:39:10;95270.88;;;14.04;69.89
75051;BME280;63628;47.656;11.310;2022-10-31T01:41:40;95265.63;;;14.26;68.65
75051;BME280;63628;47.656;11.310;2022-10-31T01:46:49;95265.94;;;14.29;68.61
75051;BME280;63628;47.656;11.310;2022-10-31T01:52:11;95263.47;;;14.23;68.50
75051;BME280;63628;47.656;11.310;2022-10-31T01:54:50;95259.34;;;14.15;68.97
75051;BME280;63628;47.656;11.310;2022-10-31T01:57:18;95260.97;;;14.16;69.45
75051;BME280;63628;47.656;11.310;2022-10-31T01:59:49;95267.16;;;11.74;74.57
75051;BME280;63628;47.656;11.310;2022-10-31T02:02:18;95255.25;;;13.62;69.84
75051;BME280;63628;47.656;11.310;2022-10-31T02:04:46;95252.50;;;13.86;69.45
75051;BME280;63628;47.656;11.310;2022-10-31T02:07:16;95255.97;;;14.03;68.99
75051;BME280;63628;47.656;11.310;2022-10-31T02:09:46;95258.63;;;11.72;64.83
75051;BME280;63628;47.656;11.310;2022-10-31T02:12:14;95258.63;;;12.89;72.25
75051;BME280;63628;47.656;11.310;2022-10-31T02:14:41;95254.38;;;10.93;66.96
75051;BME280;63628;47.656;11.310;2022-10-31T02:17:08;95264.81;;;10.88;67.68
75051;BME280;63628;47.656;11.310;2022-10-31T02:28:58;95253.69;;;13.78;69.16
75051;BME280;63628;47.656;11.310;2022-10-31T02:32:14;95250.56;;;13.81;68.99
75051;BME280;63628;47.656;11.310;2022-10-31T02:34:22;95257.16;;;13.79;69.62
75051;BME280;63628;47.656;11.310;2022-10-31T02:39:48;95257.91;;;13.91;68.65
75051;BME280;63628;47.656;11.310;2022-10-31T02:42:31;95254.03;;;13.82;69.47
75051;BME280;63628;47.656;11.310;2022-10-31T02:47:34;95247.03;;;13.64;60.47
75051;BME280;63628;47.656;11.310;2022-10-31T02:50:07;95254.53;;;12.12;62.22
75051;BME280;63628;47.656;11.310;2022-10-31T02:52:36;95264.25;;;8.61;74.35
75051;BME280;63628;47.656;11.310;2022-10-31T02:55:57;95249.00;;;11.60;75.75
75051;BME280;63628;47.656;11.310;2022-10-31T02:58:14;95246.81;;;13.20;70.29
75051;BME280;63628;47.656;11.310;2022-10-31T03:01:15;95247.38;;;13.11;70.05
75051;BME280;63628;47.656;11.310;2022-10-31T03:09:29;95247.97;;;13.41;68.27
75051;BME280;63628;47.656;11.310;2022-10-31T03:12:16;95242.50;;;13.48;69.66
75051;BME280;63628;47.656;11.310;2022-10-31T03:14:52;95234.28;;;13.49;69.42
75051;BME280;63628;47.656;11.310;2022-10-31T03:18:16;95253.03;;;11.62;63.17
75051;BME280;63628;47.656;11.310;2022-10-31T03:20:20;95241.25;;;13.22;70.30
75051;BME280;63628;47.656;11.310;2022-10-31T03:22:48;95241.38;;;13.44;69.87
75051;BME280;63628;47.656;11.310;2022-10-31T03:25:16;95233.16;;;13.45;69.92
75051;BME280;63628;47.656;11.310;2022-10-31T03:27:44;95239.41;;;12.99;68.19
75051;BME280;63628;47.656;11.310;2022-10-31T03:30:11;95236.63;;;13.46;69.32
75051;BME280;63628;47.656;11.310;2022-10-31T03:32:51;95235.91;;;13.50;69.15
75051;BME280;63628;47.656;11.310;2022-10-31T03:35:23;95244.47;;;12.72;62.05
75051;BME280;63628;47.656;11.310;2022-10-31T03:37:52;95241.56;;;13.25;70.18
75051;BME280;63628;47.656;11.310;2022-10-31T03:40:21;95240.47;;;13.38;66.38
75051;BME280;63628;47.656;11.310;2022-10-31T03:42:54;95243.91;;;12.12;73.20
75051;BME280;63628;47.656;11.310;2022-10-31T03:45:28;95242.53;;;13.19;70.01
75051;BME280;63628;47.656;11.310;2022-10-31T03:47:56;95241.81;;;10.09;70.34
75051;BME280;63628;47.656;11.310;2022-10-31T03:50:25;95246.75;;;11.45;74.20
75051;BME280;63628;47.656;11.310;2022-10-31T03:53:05;95239.22;;;13.00;70.56
75051;BME280;63628;47.656;11.310;2022-10-31T03:55:40;95233.50;;;13.20;69.49
75051;BME280;63628;47.656;11.310;2022-10-31T03:58:21;95251.97;;;11.82;73.79
75051;BME280;63628;47.656;11.310;2022-10-31T04:00:51;95245.22;;;12.96;70.40
75051;BME280;63628;47.656;11.310;2022-10-31T04:03:22;95248.88;;;13.18;69.40
75051;BME280;63628;47.656;11.310;2022-10-31T04:05:52;95251.41;;;13.25;68.99
75051;BME280;63628;47.656;11.310;2022-10-31T04:08:23;95244.94;;;13.21;69.35
75051;BME280;63628;47.656;11.310;2022-10-31T04:10:52;95244.13;;;13.20;69.46
75051;BME280;63628;47.656;11.310;2022-10-31T04:13:27;95255.78;;;13.31;69.13
75051;BME280;63628;47.656;11.310;2022-10-31T04:15:56;95249.47;;;13.20;69.36
75051;BME280;63628;47.656;11.310;2022-10-31T04:18:23;95243.66;;;13.23;69.25
75051;BME280;63628;47.656;11.310;2022-10-31T04:20:59;95252.91;;;13.21;69.66
75051;BME280;63628;47.656;11.310;2022-10-31T04:23:27;95245.19;;;13.19;69.63
75051;BME280;63628;47.656;11.310;2022-10-31T04:25:54;95249.78;;;12.60;69.96
75051;BME280;63628;47.656;11.310;2022-10-31T04:28:21;95254.66;;;10.30;68.89
75051;BME280;63628;47.656;11.310;2022-10-31T04:30:47;95250.72;;;12.66;70.68
75051;BME280;63628;47.656;11.310;2022-10-31T04:33:14;95249.25;;;12.98;69.55
75051;BME280;63628;47.656;11.310;2022-10-31T04:35:41;95253.97;;;13.08;69.40
75051;BME280;63628;47.656;11.310;2022-10-31T04:38:07;95250.28;;;13.09;65.61
75051;BME280;63628;47.656;11.310;2022-10-31T04:40:33;95258.44;;;12.32;71.54
75051;BME280;63628;47.656;11.310;2022-10-31T04:43:00;95251.00;;;12.93;69.80
75051;BME280;63628;47.656;11.310;2022-10-31T04:45:27;95251.78;;;13.05;69.48
75051;BME280;63628;47.656;11.310;2022-10-31T04:47:53;95244.38;;;13.07;69.39
75051;BME280;63628;47.656;11.310;2022-10-31T04:50:20;95254.22;;;13.07;68.86
75051;BME280;63628;47.656;11.310;2022-10-31T04:52:46;95249.72;;;13.07;68.81
75051;BME280;63628;47.656;11.310;2022-10-31T04:55:13;95248.00;;;13.01;69.63
75051;BME280;63628;47.656;11.310;2022-10-31T04:57:45;95252.50;;;13.00;69.52
75051;BME280;63628;47.656;11.310;2022-10-31T05:00:13;95254.13;;;13.01;69.35
75051;BME280;63628;47.656;11.310;2022-10-31T05:02:47;95250.84;;;12.99;69.14
75051;BME280;63628;47.656;11.310;2022-10-31T05:05:16;95245.22;;;12.96;69.52
75051;BME280;63628;47.656;11.310;2022-10-31T05:07:45;95249.31;;;12.75;61.41
75051;BME280;63628;47.656;11.310;2022-10-31T05:10:14;95243.97;;;12.87;69.86
75051;BME280;63628;47.656;11.310;2022-10-31T05:12:52;95243.16;;;12.86;70.06
75051;BME280;63628;47.656;11.310;2022-10-31T05:15:20;95242.56;;;12.96;69.30
75051;BME280;63628;47.656;11.310;2022-10-31T05:17:48;95250.19;;;12.92;69.32
75051;BME280;63628;47.656;11.310;2022-10-31T05:20:16;95247.31;;;12.82;70.04
75051;BME280;63628;47.656;11.310;2022-10-31T05:22:44;95241.88;;;12.89;69.36
75051;BME280;63628;47.656;11.310;2022-10-31T05:25:11;95235.06;;;12.93;68.84
75051;BME280;63628;47.656;11.310;2022-10-31T05:27:39;95241.06;;;12.88;69.39
75051;BME280;63628;47.656;11.310;2022-10-31T05:30:07;95242.16;;;12.76;68.19
75051;BME280;63628;47.656;11.310;2022-10-31T05:32:45;95244.66;;;12.82;69.72
75051;BME280;63628;47.656;11.310;2022-10-31T05:35:29;95233.56;;;12.85;69.26
75051;BME280;63628;47.656;11.310;2022-10-31T05:37:57;95238.06;;;11.68;60.71
75051;BME280;63628;47.656;11.310;2022-10-31T05:40:25;95236.44;;;12.09;71.78
75051;BME280;63628;47.656;11.310;2022-10-31T05:42:53;95231.56;;;12.64;69.66
75051;BME280;63628;47.656;11.310;2022-10-31T05:45:21;95222.97;;;12.74;69.57
75051;BME280;63628;47.656;11.310;2022-10-31T05:47:59;95222.19;;;12.73;64.21
75051;BME280;63628;47.656;11.310;2022-10-31T05:50:28;95233.44;;;12.17;71.16
75051;BME280;63628;47.656;11.310;2022-10-31T05:53:03;95226.94;;;12.59;69.92
75051;BME280;63628;47.656;11.310;2022-10-31T05:55:31;95233.19;;;11.11;62.15
75051;BME280;63628;47.656;11.310;2022-10-31T05:57:57;95232.97;;;12.43;70.54
75051;BME280;63628;47.656;11.310;2022-10-31T06:00:25;95227.19;;;12.58;69.80
75051;BME280;63628;47.656;11.310;2022-10-31T06:02:59;95231.31;;;12.65;69.59
75051;BME280;63628;47.656;11.310;2022-10-31T06:05:26;95221.63;;;12.59;69.77
75051;BME280;63628;47.656;11.310;2022-10-31T06:07:53;95219.78;;;12.60;69.76
75051;BME280;63628;47.656;11.310;2022-10-31T06:10:19;95225.66;;;12.62;69.64
75051;BME280;63628;47.656;11.310;2022-10-31T06:12:48;95218.75;;;12.61;69.72
75051;BME280;63628;47.656;11.310;2022-10-31T06:15:15;95223.81;;;12.62;69.48
75051;BME280;63628;47.656;11.310;2022-10-31T06:18:00;95219.78;;;12.60;69.21
75051;BME280;63628;47.656;11.310;2022-10-31T06:20:28;95226.16;;;11.47;72.11
75051;BME280;63628;47.656;11.310;2022-10-31T06:22:54;95222.56;;;10.02;67.21
75051;BME280;63628;47.656;11.310;2022-10-31T06:25:21;95230.81;;;8.99;71.52
75051;BME280;63628;47.656;11.310;2022-10-31T06:27:47;95225.53;;;8.99;78.87
75051;BME280;63628;47.656;11.310;2022-10-31T06:30:14;95216.00;;;11.86;72.01
75051;BME280;63628;47.656;11.310;2022-10-31T06:32:41;95204.34;;;12.22;70.45
75051;BME280;63628;47.656;11.310;2022-10-31T06:35:07;95210.56;;;11.39;63.45
75051;BME280;63628;47.656;11.310;2022-10-31T06:37:34;95199.16;;;12.15;70.25
75051;BME280;63628;47.656;11.310;2022-10-31T06:40:00;95205.50;;;11.79;70.46
75051;BME280;63628;47.656;11.310;2022-10-31T06:42:27;95199.75;;;12.17;68.21
75051;BME280;63628;47.656;11.310;2022-10-31T06:44:53;95201.44;;;12.35;69.06
75051;BME280;63628;47.656;11.310;2022-10-31T06:47:20;95198.13;;;12.40;68.86
75051;BME280;63628;47.656;11.310;2022-10-31T06:49:46;95199.41;;;12.37;69.65
75051;BME280;63628;47.656;11.310;2022-10-31T06:52:13;95204.47;;;12.38;69.39
75051;BME280;63628;47.656;11.310;2022-10-31T06:54:39;95197.31;;;12.27;70.26
75051;BME280;63628;47.656;11.310;2022-10-31T06:57:05;95199.03;;;12.33;69.41
75051;BME280;63628;47.656;11.310;2022-10-31T06:59:32;95208.06;;;11.97;70.21
75051;BME280;63628;47.656;11.310;2022-10-31T07:01:58;95206.78;;;12.23;70.00
75051;BME280;63628;47.656;11.310;2022-10-31T07:04:25;95203.91;;;11.90;67.22
75051;BME280;63628;47.656;11.310;2022-10-31T07:06:52;95208.31;;;10.46;77.26
75051;BME280;63628;47.656;11.310;2022-10-31T07:09:19;95214.19;;;9.30;77.75
75051;BME280;63628;47.656;11.310;2022-10-31T07:11:45;95209.63;;;11.03;76.65
75051;BME280;63628;47.656;11.310;2022-10-31T07:14:12;95212.88;;;11.05;77.78
75051;BME280;63628;47.656;11.310;2022-10-31T07:16:38;95210.56;;;11.39;73.40
75051;BME280;63628;47.656;11.310;2022-10-31T07:19:05;95214.38;;;11.85;72.43
75051;BME280;63628;47.656;11.310;2022-10-31T07:21:31;95215.59;;;11.17;76.81
75051;BME280;63628;47.656;11.310;2022-10-31T07:23:57;95216.94;;;11.50;73.01
75051;BME280;63628;47.656;11.310;2022-10-31T07:26:24;95217.28;;;12.06;72.58
75051;BME280;63628;47.656;11.310;2022-10-31T07:28:50;95217.63;;;12.22;70.80
75051;BME280;63628;47.656;11.310;2022-10-31T07:31:17;95216.22;;;12.54;73.24
75051;BME280;63628;47.656;11.310;2022-10-31T07:33:43;95223.59;;;12.52;72.84
75051;BME280;63628;47.656;11.310;2022-10-31T07:36:10;95219.56;;;12.61;68.68
75051;BME280;63628;47.656;11.310;2022-10-31T07:38:36;95219.19;;;13.10;74.39
75051;BME280;63628;47.656;11.310;2022-10-31T07:41:03;95222.44;;;12.60;69.76
75051;BME280;63628;47.656;11.310;2022-10-31T07:43:29;95215.41;;;12.54;69.45
75051;BME280;63628;47.656;11.310;2022-10-31T07:45:56;95212.13;;;12.75;71.17
75051;BME280;63628;47.656;11.310;2022-10-31T07:48:22;95216.47;;;12.93;68.50
75051;BME280;63628;47.656;11.310;2022-10-31T07:50:48;95218.94;;;14.18;71.91
75051;BME280;63628;47.656;11.310;2022-10-31T07:53:15;95212.19;;;15.10;69.10
75051;BME280;63628;47.656;11.310;2022-10-31T07:55:42;95212.25;;;13.99;65.34
75051;BME280;63628;47.656;11.310;2022-10-31T07:58:11;95211.38;;;13.93;73.38
75051;BME280;63628;47.656;11.310;2022-10-31T08:00:39;95210.13;;;14.73;68.89
75051;BME280;63628;47.656;11.310;2022-10-31T08:03:09;95217.56;;;14.71;68.76
75051;BME280;63628;47.656;11.310;2022-10-31T08:05:36;95210.88;;;15.12;67.11
75051;BME280;63628;47.656;11.310;2022-10-31T08:08:05;95207.47;;;14.73;69.65
75051;BME280;63628;47.656;11.310;2022-10-31T08:10:32;95195.00;;;15.22;66.87
75051;BME280;63628;47.656;11.310;2022-10-31T08:13:04;95206.66;;;15.43;66.53
75051;BME280;63628;47.656;11.310;2022-10-31T08:15:32;95208.06;;;15.24;66.61
75051;BME280;63628;47.656;11.310;2022-10-31T08:18:00;95204.72;;;15.88;65.61
75051;BME280;63628;47.656;11.310;2022-10-31T08:20:27;95196.75;;;16.77;63.57
75051;BME280;63628;47.656;11.310;2022-10-31T08:22:59;95197.94;;;14.55;68.33
75051;BME280;63628;47.656;11.310;2022-10-31T08:25:27;95189.13;;;17.01;61.21
75051;BME280;63628;47.656;11.310;2022-10-31T08:27:59;95192.72;;;18.54;59.14
75051;BME280;63628;47.656;11.310;2022-10-31T08:30:28;95183.88;;;18.53;58.41
75051;BME280;63628;47.656;11.310;2022-10-31T08:33:18;95188.16;;;18.59;58.60
75051;BME280;63628;47.656;11.310;2022-10-31T08:35:44;95186.06;;;18.05;60.21
75051;BME280;63628;47.656;11.310;2022-10-31T08:38:12;95173.41;;;18.62;57.42
75051;BME280;63628;47.656;11.310;2022-10-31T08:40:39;95168.03;;;19.31;55.37
75051;BME280;63628;47.656;11.310;2022-10-31T08:43:13;95169.59;;;19.38;58.69
75051;BME280;63628;47.656;11.310;2022-10-31T08:45:41;95164.25;;;20.69;53.80
75051;BME280;63628;47.656;11.310;2022-10-31T08:48:13;95165.03;;;20.45;53.69
75051;BME280;63628;47.656;11.310;2022-10-31T08:50:40;95166.94;;;20.11;55.27
75051;BME280;63628;47.656;11.310;2022-10-31T08:53:09;95160.97;;;20.19;54.35
75051;BME280;63628;47.656;11.310;2022-10-31T08:55:37;95156.81;;;18.45;60.94
75051;BME280;63628;47.656;11.310;2022-10-31T08:58:05;95164.59;;;18.41;61.37
75051;BME280;63628;47.656;11.310;2022-10-31T09:00:34;95161.25;;;19.83;53.09
75051;BME280;63628;47.656;11.310;2022-10-31T09:03:03;95162.59;;;20.49;54.60
75051;BME280;63628;47.656;11.310;2022-10-31T09:05:30;95159.22;;;20.33;53.15
75051;BME280;63628;47.656;11.310;2022-10-31T09:08:02;95146.91;;;20.56;51.80
75051;BME280;63628;47.656;11.310;2022-10-31T09:10:30;95154.19;;;19.09;54.92
75051;BME280;63628;47.656;11.310;2022-10-31T09:12:59;95157.09;;;16.64;62.24
75051;BME280;63628;47.656;11.310;2022-10-31T09:15:27;95159.50;;;16.13;63.89
75051;BME280;63628;47.656;11.310;2022-10-31T09:17:54;95150.69;;;17.48;62.31
75051;BME280;63628;47.656;11.310;2022-10-31T09:20:21;95157.69;;;16.66;61.85
75051;BME280;63628;47.656;11.310;2022-10-31T09:22:58;95151.09;;;16.36;63.50
75051;BME280;63628;47.656;11.310;2022-10-31T09:25:25;95135.34;;;18.55;59.43
75051;BME280;63628;47.656;11.310;2022-10-31T09:27:55;95131.97;;;18.03;59.05
75051;BME280;63628;47.656;11.310;2022-10-31T09:30:23;95141.53;;;17.13;62.58
75051;BME280;63628;47.656;11.310;2022-10-31T09:32:55;95141.84;;;16.12;63.49
75051;BME280;63628;47.656;11.310;2022-10-31T09:35:22;95145.69;;;14.98;67.84
75051;BME280;63628;47.656;11.310;2022-10-31T09:38:02;95148.75;;;15.12;64.65
75051;BME280;63628;47.656;11.310;2022-10-31T09:45:48;95136.53;;;16.64;63.95
75051;BME280;63628;47.656;11.310;2022-10-31T09:48:31;95137.97;;;15.29;64.25
75051;BME280;63628;47.656;11.310;2022-10-31T09:51:04;95126.44;;;15.50;66.19
75051;BME280;63628;47.656;11.310;2022-10-31T09:56:07;95117.34;;;16.20;66.54
75051;BME280;63628;47.656;11.310;2022-10-31T09:58:41;95131.69;;;15.67;67.47
75051;BME280;63628;47.656;11.310;2022-10-31T10:01:38;95140.75;;;14.63;69.46
75051;BME280;63628;47.656;11.310;2022-10-31T10:04:30;95128.84;;;15.19;68.59
75051;BME280;63628;47.656;11.310;2022-10-31T10:07:01;95131.09;;;15.33;68.05
75051;BME280;63628;47.656;11.310;2022-10-31T10:09:29;95124.31;;;15.20;66.25
75051;BME280;63628;47.656;11.310;2022-10-31T10:14:51;95122.69;;;15.78;65.27
75051;BME280;63628;47.656;11.310;2022-10-31T10:18:05;95115.22;;;14.94;66.25
75051;BME280;63628;47.656;11.310;2022-10-31T10:23:50;95109.28;;;15.09;67.48
75051;BME280;63628;47.656;11.310;2022-10-31T10:26:24;95114.88;;;15.66;64.22
75051;BME280;63628;47.656;11.310;2022-10-31T10:28:58;95114.56;;;14.82;66.42
75051;BME280;63628;47.656;11.310;2022-10-31T10:31:39;95107.75;;;14.42;67.63
75051;BME280;63628;47.656;11.310;2022-10-31T10:34:15;95101.53;;;14.37;68.72
75051;BME280;63628;47.656;11.310;2022-10-31T10:36:48;95092.88;;;14.29;68.30
75051;BME280;63628;47.656;11.310;2022-10-31T10:39:23;95097.31;;;15.11;69.16
75051;BME280;63628;47.656;11.310;2022-10-31T10:41:51;95086.78;;;16.01;65.71
75051;BME280;63628;47.656;11.310;2022-10-31T10:44:39;95084.03;;;17.05;62.96
75051;BME280;63628;47.656;11.310;2022-10-31T10:47:26;95082.16;;;17.11;62.85
75051;BME280;63628;47.656;11.310;2022-10-31T10:50:17;95086.38;;;16.24;63.93
75051;BME280;63628;47.656;11.310;2022-10-31T10:53:03;95066.66;;;17.43;60.98
75051;BME280;63628;47.656;11.310;2022-10-31T10:55:42;95074.06;;;18.18;57.18
75051;BME280;63628;47.656;11.310;2022-10-31T10:58:12;95070.28;;;18.39;58.03
75051;BME280;63628;47.656;11.310;2022-10-31T11:00:44;95064.94;;;18.93;57.40
75051;BME280;63628;47.656;11.310;2022-10-31T11:03:14;95062.47;;;18.48;56.81
75051;BME280;63628;47.656;11.310;2022-10-31T11:05:50;95057.56;;;17.24;60.68
75051;BME280;63628;47.656;11.310;2022-10-31T11:08:29;95059.06;;;16.74;60.99
75051;BME280;63628;47.656;11.310;2022-10-31T11:10:58;95042.28;;;17.45;61.63
75051;BME280;63628;47.656;11.310;2022-10-31T11:13:26;95046.84;;;17.39;60.72
75051;BME280;63628;47.656;11.310;2022-10-31T11:15:58;95053.19;;;15.31;65.10
75051;BME280;63628;47.656;11.310;2022-10-31T11:18:27;95040.97;;;16.92;64.37
75051;BME280;63628;47.656;11.310;2022-10-31T11:20:57;95039.09;;;17.48;61.59
75051;BME280;63628;47.656;11.310;2022-10-31T11:23:25;95034.28;;;17.15;61.72
75051;BME280;63628;47.656;11.310;2022-10-31T11:26:04;95030.53;;;17.16;60.89
75051;BME280;63628;47.656;11.310;2022-10-31T11:28:33;95028.66;;;17.26;61.92
75051;BME280;63628;47.656;11.310;2022-10-31T11:31:07;95034.28;;;16.99;60.50
75051;BME280;63628;47.656;11.310;2022-10-31T11:33:37;95029.84;;;16.47;62.44
75051;BME280;63628;47.656;11.310;2022-10-31T11:36:37;95021.28;;;15.78;63.50
75051;BME280;63628;47.656;11.310;2022-10-31T11:39:15;95020.09;;;16.11;61.90
75051;BME280;63628;47.656;11.310;2022-10-31T11:41:43;95008.31;;;16.90;61.97
75051;BME280;63628;47.656;11.310;2022-10-31T11:44:16;95022.63;;;16.43;61.84
75051;BME280;63628;47.656;11.310;2022-10-31T11:49:19;95026.75;;;16.81;61.39
75051;BME280;63628;47.656;11.310;2022-10-31T11:51:52;95009.00;;;16.44;62.09
75051;BME280;63628;47.656;11.310;2022-10-31T11:54:25;95018.53;;;15.63;64.67
75051;BME280;63628;47.656;11.310;2022-10-31T11:56:52;95014.22;;;16.09;64.29
75051;BME280;63628;47.656;11.310;2022-10-31T11:59:24;95001.94;;;16.13;62.84
75051;BME280;63628;47.656;11.310;2022-10-31T12:01:52;95010.88;;;15.44;66.95
75051;BME280;63628;47.656;11.310;2022-10-31T12:07:02;95001.88;;;16.65;59.24
75051;BME280;63628;47.656;11.310;2022-10-31T12:09:32;95001.34;;;15.96;64.34
75051;BME280;63628;47.656;11.310;2022-10-31T12:15:09;94998.59;;;15.75;64.28
75051;BME280;63628;47.656;11.310;2022-10-31T12:26:54;94983.44;;;16.89;59.02
75051;BME280;63628;47.656;11.310;2022-10-31T12:29:12;94981.56;;;16.74;59.59
75051;BME280;63628;47.656;11.310;2022-10-31T12:32:13;94972.75;;;16.89;59.66
75051;BME280;63628;47.656;11.310;2022-10-31T12:34:45;94971.41;;;16.71;61.93
75051;BME280;63628;47.656;11.310;2022-10-31T12:37:55;94971.44;;;17.02;60.42
75051;BME280;63628;47.656;11.310;2022-10-31T12:43:36;94959.66;;;17.03;61.86
75051;BME280;63628;47.656;11.310;2022-10-31T12:46:14;94956.47;;;16.96;60.82
75051;BME280;63628;47.656;11.310;2022-10-31T12:54:06;94944.59;;;17.63;57.52
75051;BME280;63628;47.656;11.310;2022-10-31T12:59:42;94934.53;;;16.94;60.47
75051;BME280;63628;47.656;11.310;2022-10-31T13:03:19;94931.84;;;17.04;61.49
75051;BME280;63628;47.656;11.310;2022-10-31T13:07:58;94917.88;;;17.42;58.26
75051;BME280;63628;47.656;11.310;2022-10-31T13:10:31;94924.53;;;17.70;58.00
75051;BME280;63628;47.656;11.310;2022-10-31T13:15:51;94916.47;;;17.81;59.45
75051;BME280;63628;47.656;11.310;2022-10-31T13:18:44;94905.69;;;17.96;58.62
75051;BME280;63628;47.656;11.310;2022-10-31T13:21:26;94905.94;;;17.99;57.75
75051;BME280;63628;47.656;11.310;2022-10-31T13:23:54;94905.31;;;18.13;57.64
75051;BME280;63628;47.656;11.310;2022-10-31T13:26:37;94897.22;;;18.28;57.98
75051;BME280;63628;47.656;11.310;2022-10-31T13:29:25;94898.31;;;18.22;60.05
75051;BME280;63628;47.656;11.310;2022-10-31T13:31:58;94905.34;;;16.26;63.79
75051;BME280;63628;47.656;11.310;2022-10-31T13:34:27;94893.19;;;17.66;63.21
75051;BME280;63628;47.656;11.310;2022-10-31T13:37:07;94898.03;;;17.64;60.65
75051;BME280;63628;47.656;11.310;2022-10-31T13:40:11;94885.28;;;17.25;67.74
75051;BME280;63628;47.656;11.310;2022-10-31T13:42:45;94885.91;;;18.36;63.13
75051;BME280;63628;47.656;11.310;2022-10-31T13:45:18;94885.88;;;16.97;62.71
75051;BME280;63628;47.656;11.310;2022-10-31T13:48:17;94889.03;;;18.04;65.85
75051;BME280;63628;47.656;11.310;2022-10-31T13:50:59;94887.16;;;18.04;63.76
75051;BME280;63628;47.656;11.310;2022-10-31T13:56:21;94877.22;;;18.05;64.88
75051;BME280;63628;47.656;11.310;2022-10-31T14:01:36;94869.16;;;18.10;64.20
75051;BME280;63628;47.656;11.310;2022-10-31T14:04:23;94875.31;;;18.11;64.39
75051;BME280;63628;47.656;11.310;2022-10-31T14:07:10;94873.69;;;18.15;62.95
75051;BME280;63628;47.656;11.310;2022-10-31T14:12:26;94865.94;;;17.59;62.56
75051;BME280;63628;47.656;11.310;2022-10-31T14:14:58;94863.13;;;17.89;63.47
75051;BME280;63628;47.656;11.310;2022-10-31T14:17:27;94874.72;;;18.19;62.11
75051;BME280;63628;47.656;11.310;2022-10-31T14:22:38;94853.59;;;17.68;65.39
75051;BME280;63628;47.656;11.310;2022-10-31T14:25:43;94867.09;;;16.10;66.87
75051;BME280;63628;47.656;11.310;2022-10-31T14:28:32;94852.34;;;15.72;68.48
75051;BME280;63628;47.656;11.310;2022-10-31T14:30:59;94858.34;;;16.91;70.41
75051;BME280;63628;47.656;11.310;2022-10-31T14:33:28;94861.53;;;16.32;67.33
75051;BME280;63628;47.656;11.310;2022-10-31T14:36:18;94867.34;;;16.14;71.17
75051;BME280;63628;47.656;11.310;2022-10-31T14:52:14;94844.44;;;15.45;70.61